Time;durP1;ratioP1;P1;durP2;ratioP2;P2;SDS_P1;SDS_P2;PMS_P1;PMS_P2;Temp;Humidity;BMP_temperature;BMP_pressure;BME280_temperature;BME280_humidity;BME280_pressure;Samples;Min_cycle;Max_cycle;Signal;HPM_P1;HPM_P2
2023/06/05 00:02:05;;;;;;;6.33;3.83;;;;;;;;;;5073903;28;20450;-61
2023/06/05 00:04:32;;;;;;;8.30;3.87;;;;;;;;;;5073942;28;20528;-61
2023/06/05 00:07:00;;;;;;;4.27;3.20;;;;;;;;;;5074108;28;20488;-61
2023/06/05 00:09:28;;;;;;;5.53;3.70;;;;;;;;;;5074253;28;20451;-61
2023/06/05 00:11:55;;;;;;;7.90;3.73;;;;;;;;;;5074067;28;20455;-60
2023/06/05 00:14:22;;;;;;;4.40;3.40;;;;;;;;;;5074030;28;20769;-61
2023/06/05 00:16:51;;;;;;;4.10;3.70;;;;;;;;;;5073573;28;20481;-61
2023/06/05 00:19:18;;;;;;;6.13;3.67;;;;;;;;;;5074572;28;20442;-61
2023/06/05 00:21:45;;;;;;;7.83;4.23;;;;;;;;;;5073576;28;20477;-61
2023/06/05 00:24:13;;;;;;;4.43;3.90;;;;;;;;;;5073978;28;20448;-61
2023/06/05 00:26:41;;;;;;;5.30;3.67;;;;;;;;;;5074073;28;20478;-61
2023/06/05 00:29:08;;;;;;;6.23;5.33;;;;;;;;;;5073534;28;20448;-61
2023/06/05 00:31:35;;;;;;;6.80;4.20;;;;;;;;;;5073804;28;20876;-61
2023/06/05 00:34:03;;;;;;;5.30;3.70;;;;;;;;;;5073806;28;20797;-61
2023/06/05 00:36:32;;;;;;;4.47;3.20;;;;;;;;;;5073643;28;20453;-61
2023/06/05 00:38:59;;;;;;;6.03;4.40;;;;;;;;;;5074151;28;20464;-60
2023/06/05 00:41:27;;;;;;;3.93;3.57;;;;;;;;;;5074152;28;20457;-61
2023/06/05 00:43:55;;;;;;;5.83;4.00;;;;;;;;;;5073374;28;20453;-61
2023/06/05 00:46:22;;;;;;;6.60;4.07;;;;;;;;;;5073119;28;20481;-61
2023/06/05 00:48:50;;;;;;;7.27;5.40;;;;;;;;;;5073318;28;20444;-61
2023/06/05 00:51:17;;;;;;;5.53;4.00;;;;;;;;;;5073413;28;20451;-61
2023/06/05 00:53:46;;;;;;;5.40;4.00;;;;;;;;;;5073211;28;20481;-61
2023/06/05 00:56:13;;;;;;;5.27;4.60;;;;;;;;;;5073081;28;20447;-61
2023/06/05 00:58:40;;;;;;;9.00;3.93;;;;;;;;;;5073166;28;20429;-61
2023/06/05 01:01:11;;;;;;;4.20;3.80;;;;;;;;;;5073440;28;20439;-61
2023/06/05 01:03:39;;;;;;;8.03;4.20;;;;;;;;;;5072689;28;20921;-61
2023/06/05 01:06:06;;;;;;;5.90;5.33;;;;;;;;;;5073148;28;20478;-61
2023/06/05 01:08:38;;;;;;;6.50;4.43;;;;;;;;;;5072892;28;20445;-61
2023/06/05 01:11:06;;;;;;;6.10;5.00;;;;;;;;;;5073168;28;20433;-61
2023/06/05 01:13:35;;;;;;;8.07;4.63;;;;;;;;;;5073062;28;20791;-64
2023/06/05 01:16:04;;;;;;;7.57;4.70;;;;;;;;;;5072951;28;20492;-60
2023/06/05 01:18:33;;;;;;;6.27;5.30;;;;;;;;;;5073213;28;20938;-61
2023/06/05 01:21:03;;;;;;;10.40;5.10;;;;;;;;;;5073568;28;20516;-60
2023/06/05 01:23:35;;;;;;;9.73;5.37;;;;;;;;;;5073379;28;20441;-61
2023/06/05 01:26:04;;;;;;;6.93;5.43;;;;;;;;;;5073572;28;20468;-61
2023/06/05 01:28:33;;;;;;;5.93;5.33;;;;;;;;;;5073180;28;20498;-61
2023/06/05 01:31:04;;;;;;;7.57;5.50;;;;;;;;;;5072852;28;20449;-61
2023/06/05 01:33:34;;;;;;;8.50;5.87;;;;;;;;;;5073196;28;20538;-61
2023/06/05 01:36:04;;;;;;;12.37;9.50;;;;;;;;;;5073775;28;20467;-61
2023/06/05 01:38:34;;;;;;;12.03;8.87;;;;;;;;;;5072750;28;20988;-61
2023/06/05 01:41:01;;;;;;;12.70;7.67;;;;;;;;;;5073630;28;20455;-60
2023/06/05 01:43:29;;;;;;;7.50;6.47;;;;;;;;;;5072644;28;20948;-61
2023/06/05 01:45:58;;;;;;;9.73;6.67;;;;;;;;;;5073120;28;20444;-61
2023/06/05 01:48:27;;;;;;;6.73;5.90;;;;;;;;;;5073096;28;20521;-61
2023/06/05 01:50:57;;;;;;;8.10;6.83;;;;;;;;;;5072690;28;20438;-60
2023/06/05 01:53:24;;;;;;;8.67;7.27;;;;;;;;;;5072505;28;20481;-61
2023/06/05 01:55:53;;;;;;;8.80;6.53;;;;;;;;;;5073653;28;20440;-61
2023/06/05 01:58:21;;;;;;;11.10;6.37;;;;;;;;;;5076950;28;20444;-60
2023/06/05 02:00:48;;;;;;;11.57;7.10;;;;;;;;;;5076681;28;20449;-61
2023/06/05 02:03:16;;;;;;;9.60;6.33;;;;;;;;;;5076225;28;20448;-61
2023/06/05 02:05:43;;;;;;;9.10;6.90;;;;;;;;;;5077275;28;20440;-61
2023/06/05 02:08:12;;;;;;;11.10;6.23;;;;;;;;;;5076603;28;20480;-61
2023/06/05 02:10:43;;;;;;;7.50;6.80;;;;;;;;;;5076591;28;20452;-60
2023/06/05 02:13:12;;;;;;;6.57;5.87;;;;;;;;;;5076485;28;20451;-61
2023/06/05 02:15:41;;;;;;;8.70;6.40;;;;;;;;;;5076011;28;20480;-61
2023/06/05 02:18:08;;;;;;;7.60;6.87;;;;;;;;;;5076574;28;20444;-61
2023/06/05 02:20:35;;;;;;;6.73;6.03;;;;;;;;;;5076300;28;20828;-61
2023/06/05 02:23:05;;;;;;;9.10;6.60;;;;;;;;;;5075865;28;20495;-61
2023/06/05 02:25:32;;;;;;;9.40;7.23;;;;;;;;;;5076252;28;20507;-61
2023/06/05 02:27:59;;;;;;;9.00;7.57;;;;;;;;;;5075700;28;20468;-61
2023/06/05 02:30:28;;;;;;;8.03;6.53;;;;;;;;;;5076563;28;20486;-61
2023/06/05 02:33:00;;;;;;;7.83;6.60;;;;;;;;;;5076200;28;20444;-61
2023/06/05 02:35:29;;;;;;;12.00;6.67;;;;;;;;;;5075805;28;20440;-61
2023/06/05 02:37:56;;;;;;;11.90;7.10;;;;;;;;;;5076280;28;20445;-61
2023/06/05 02:40:23;;;;;;;9.03;7.00;;;;;;;;;;5075961;28;20985;-61
2023/06/05 02:42:51;;;;;;;8.40;7.30;;;;;;;;;;5075951;28;20509;-61
2023/06/05 02:45:18;;;;;;;7.70;6.93;;;;;;;;;;5075876;28;20547;-60
2023/06/05 02:47:46;;;;;;;10.93;8.23;;;;;;;;;;5075757;28;20490;-61
2023/06/05 02:50:14;;;;;;;10.00;7.70;;;;;;;;;;5075403;28;20495;-61
2023/06/05 02:52:41;;;;;;;9.67;7.53;;;;;;;;;;5075367;28;20954;-61
2023/06/05 02:55:09;;;;;;;14.50;8.23;;;;;;;;;;5075719;28;20444;-61
2023/06/05 02:57:41;;;;;;;11.47;8.40;;;;;;;;;;5075874;28;20846;-61
2023/06/05 03:00:09;;;;;;;8.70;7.77;;;;;;;;;;5075692;28;20432;-61
2023/06/05 03:02:37;;;;;;;8.17;7.10;;;;;;;;;;5076334;28;20447;-60
2023/06/05 03:05:07;;;;;;;11.70;7.47;;;;;;;;;;5075156;28;20444;-61
2023/06/05 03:07:34;;;;;;;10.20;7.93;;;;;;;;;;5075909;28;20480;-61
2023/06/05 03:10:02;;;;;;;9.33;8.37;;;;;;;;;;5074989;28;20963;-61
2023/06/05 03:12:29;;;;;;;10.90;7.60;;;;;;;;;;5075594;28;20445;-61
2023/06/05 03:14:56;;;;;;;10.53;9.00;;;;;;;;;;5075319;28;20447;-61
2023/06/05 03:17:24;;;;;;;9.50;7.87;;;;;;;;;;5075431;28;20476;-61
2023/06/05 03:19:51;;;;;;;9.35;7.82;;;;;;;;;;5075262;28;20452;-61
2023/06/05 03:22:20;;;;;;;9.90;8.57;;;;;;;;;;5075128;28;20563;-60
2023/06/05 03:24:47;;;;;;;14.60;8.23;;;;;;;;;;5074999;28;20466;-61
2023/06/05 03:27:14;;;;;;;9.20;8.27;;;;;;;;;;5075445;28;20479;-60
2023/06/05 03:29:42;;;;;;;11.20;7.80;;;;;;;;;;5075073;28;20436;-61
2023/06/05 03:32:10;;;;;;;9.53;8.53;;;;;;;;;;5075364;28;20471;-61
2023/06/05 03:34:38;;;;;;;17.00;9.60;;;;;;;;;;5074876;28;20806;-61
2023/06/05 03:37:05;;;;;;;11.07;8.20;;;;;;;;;;5074587;28;20453;-61
2023/06/05 03:39:34;;;;;;;10.05;8.48;;;;;;;;;;5074765;28;20551;-61
2023/06/05 03:42:02;;;;;;;10.43;8.27;;;;;;;;;;5075137;28;20203;-60
2023/06/05 03:44:29;;;;;;;10.73;8.40;;;;;;;;;;5074543;28;20441;-61
2023/06/05 03:46:57;;;;;;;11.80;9.07;;;;;;;;;;5074336;28;20475;-61
2023/06/05 03:49:25;;;;;;;13.23;8.90;;;;;;;;;;5074517;28;20527;-61
2023/06/05 03:51:53;;;;;;;18.43;8.93;;;;;;;;;;5073709;28;20453;-60
2023/06/05 03:54:20;;;;;;;12.30;7.73;;;;;;;;;;5073952;28;20531;-61
2023/06/05 03:56:50;;;;;;;15.07;7.90;;;;;;;;;;5073756;28;20455;-61
2023/06/05 03:59:21;;;;;;;10.23;8.10;;;;;;;;;;5073988;28;20440;-61
2023/06/05 04:01:48;;;;;;;13.57;8.83;;;;;;;;;;5073490;28;20479;-61
2023/06/05 04:04:15;;;;;;;14.50;9.37;;;;;;;;;;5073593;28;20448;-61
2023/06/05 04:06:43;;;;;;;12.33;9.33;;;;;;;;;;5073761;28;20532;-61
2023/06/05 04:09:12;;;;;;;18.83;8.90;;;;;;;;;;5073674;28;20518;-61
2023/06/05 04:11:39;;;;;;;13.60;9.73;;;;;;;;;;5073751;28;20467;-62
2023/06/05 04:14:09;;;;;;;10.53;8.60;;;;;;;;;;5073289;28;20441;-60
2023/06/05 04:16:38;;;;;;;10.17;8.37;;;;;;;;;;5073160;28;20472;-61
2023/06/05 04:19:06;;;;;;;12.60;9.30;;;;;;;;;;5073877;28;20532;-61
2023/06/05 04:21:35;;;;;;;10.83;8.93;;;;;;;;;;5074060;28;20443;-63
2023/06/05 04:24:06;;;;;;;14.13;9.27;;;;;;;;;;5074009;28;20834;-61
2023/06/05 04:26:33;;;;;;;11.53;7.90;;;;;;;;;;5074016;28;20835;-60
2023/06/05 04:29:02;;;;;;;13.00;9.17;;;;;;;;;;5073349;28;20558;-61
2023/06/05 04:31:32;;;;;;;16.47;10.23;;;;;;;;;;5073554;28;20926;-61
2023/06/05 04:34:01;;;;;;;10.60;8.15;;;;;;;;;;5073248;28;20436;-60
2023/06/05 04:36:29;;;;;;;14.50;9.53;;;;;;;;;;5073555;28;20190;-61
2023/06/05 04:38:57;;;;;;;13.63;9.53;;;;;;;;;;5073375;28;20444;-61
2023/06/05 04:41:24;;;;;;;17.63;9.37;;;;;;;;;;5073953;28;20440;-61
2023/06/05 04:43:51;;;;;;;12.03;9.53;;;;;;;;;;5073676;28;20625;-61
2023/06/05 04:46:18;;;;;;;15.43;8.80;;;;;;;;;;5073262;28;20444;-60
2023/06/05 04:48:47;;;;;;;12.00;9.33;;;;;;;;;;5073510;28;20478;-61
2023/06/05 04:51:14;;;;;;;13.27;9.00;;;;;;;;;;5073001;28;20445;-61
2023/06/05 04:53:42;;;;;;;16.07;9.30;;;;;;;;;;5073125;28;20527;-61
2023/06/05 04:56:10;;;;;;;12.30;8.53;;;;;;;;;;5072868;28;20543;-61
2023/06/05 04:58:37;;;;;;;13.10;9.87;;;;;;;;;;5073458;28;20444;-62
2023/06/05 05:01:06;;;;;;;10.77;8.70;;;;;;;;;;5073332;28;20847;-62
2023/06/05 05:03:33;;;;;;;14.67;9.97;;;;;;;;;;5073117;28;20927;-60
2023/06/05 05:06:01;;;;;;;10.60;8.53;;;;;;;;;;5073305;28;20444;-60
2023/06/05 05:08:31;;;;;;;9.70;8.70;;;;;;;;;;5073245;28;20564;-62
2023/06/05 05:10:58;;;;;;;16.73;9.77;;;;;;;;;;5073422;28;20515;-62
2023/06/05 05:13:25;;;;;;;14.40;9.87;;;;;;;;;;5072815;28;20793;-63
2023/06/05 05:15:53;;;;;;;13.60;10.10;;;;;;;;;;5072558;28;20839;-62
2023/06/05 05:18:20;;;;;;;15.80;9.80;;;;;;;;;;5072894;28;21015;-62
2023/06/05 05:20:47;;;;;;;11.30;10.10;;;;;;;;;;5073302;28;20443;-61
2023/06/05 05:23:17;;;;;;;14.03;10.10;;;;;;;;;;5072825;28;20440;-60
2023/06/05 05:25:44;;;;;;;15.73;10.37;;;;;;;;;;5073062;28;20751;-60
2023/06/05 05:28:11;;;;;;;18.53;10.13;;;;;;;;;;5072766;28;20476;-60
2023/06/05 05:30:38;;;;;;;11.47;8.90;;;;;;;;;;5075859;28;20794;-61
2023/06/05 05:33:06;;;;;;;15.43;11.67;;;;;;;;;;5077545;28;20436;-60
2023/06/05 05:35:33;;;;;;;12.30;10.33;;;;;;;;;;5076763;28;20487;-61
2023/06/05 05:38:00;;;;;;;20.37;11.83;;;;;;;;;;5076850;28;20447;-60
2023/06/05 05:40:29;;;;;;;16.60;11.83;;;;;;;;;;5077009;28;20451;-62
2023/06/05 05:42:57;;;;;;;16.37;9.10;;;;;;;;;;5076890;28;20960;-62
2023/06/05 05:45:24;;;;;;;12.10;9.40;;;;;;;;;;5076905;28;20542;-62
2023/06/05 05:47:51;;;;;;;13.10;9.30;;;;;;;;;;5076921;28;20473;-61
2023/06/05 05:50:18;;;;;;;14.57;10.00;;;;;;;;;;5076494;28;20443;-61
2023/06/05 05:52:47;;;;;;;14.47;10.13;;;;;;;;;;5077334;28;20448;-60
2023/06/05 05:55:15;;;;;;;14.17;9.87;;;;;;;;;;5076987;28;20522;-61
2023/06/05 05:57:44;;;;;;;13.53;10.77;;;;;;;;;;5076779;28;20497;-60
2023/06/05 06:00:12;;;;;;;13.30;10.80;;;;;;;;;;5076601;28;20437;-61
2023/06/05 06:02:39;;;;;;;15.77;10.77;;;;;;;;;;5076663;28;20446;-61
2023/06/05 06:05:06;;;;;;;15.17;10.40;;;;;;;;;;5076653;28;20448;-61
2023/06/05 06:07:35;;;;;;;14.57;10.50;;;;;;;;;;5076431;28;20828;-61
2023/06/05 06:10:02;;;;;;;12.23;9.27;;;;;;;;;;5076531;28;20865;-61
2023/06/05 06:12:29;;;;;;;20.10;11.03;;;;;;;;;;5076322;28;20429;-60
2023/06/05 06:14:58;;;;;;;13.93;9.37;;;;;;;;;;5076197;28;20444;-61
2023/06/05 06:17:27;;;;;;;16.07;10.30;;;;;;;;;;5075938;28;20441;-61
2023/06/05 06:19:55;;;;;;;13.00;8.93;;;;;;;;;;5076538;28;20442;-61
2023/06/05 06:22:22;;;;;;;12.20;10.33;;;;;;;;;;5076110;28;20536;-61
2023/06/05 06:24:50;;;;;;;14.37;10.97;;;;;;;;;;5076146;28;20447;-61
2023/06/05 06:27:17;;;;;;;17.23;9.47;;;;;;;;;;5076110;28;20458;-61
2023/06/05 06:29:49;;;;;;;12.93;10.57;;;;;;;;;;5076175;28;20445;-61
2023/06/05 06:32:18;;;;;;;13.13;8.70;;;;;;;;;;5076177;28;20434;-61
2023/06/05 06:34:45;;;;;;;13.47;10.17;;;;;;;;;;5076487;28;20446;-61
2023/06/05 06:37:14;;;;;;;10.70;9.33;;;;;;;;;;5075564;28;20449;-61
2023/06/05 06:39:42;;;;;;;13.20;9.23;;;;;;;;;;5076008;28;20452;-61
2023/06/05 06:42:10;;;;;;;11.90;9.40;;;;;;;;;;5075230;28;20473;-61
2023/06/05 06:44:38;;;;;;;12.30;10.00;;;;;;;;;;5076206;28;20474;-63
2023/06/05 06:47:05;;;;;;;13.90;9.90;;;;;;;;;;5075802;28;20465;-61
2023/06/05 06:49:35;;;;;;;13.73;10.13;;;;;;;;;;5075365;28;20483;-61
2023/06/05 06:52:02;;;;;;;14.70;9.33;;;;;;;;;;5075402;28;20450;-61
2023/06/05 06:54:29;;;;;;;17.97;10.03;;;;;;;;;;5075769;28;20457;-60
2023/06/05 06:56:56;;;;;;;17.57;10.60;;;;;;;;;;5075287;28;20507;-61
2023/06/05 06:59:24;;;;;;;10.60;8.60;;;;;;;;;;5075588;28;20817;-61
2023/06/05 07:02:07;;;;;;;11.90;10.00;;;;;;;;;;5075755;28;20447;-61
2023/06/05 07:04:35;;;;;;;11.13;9.87;;;;;;;;;;5075117;28;20477;-61
2023/06/05 07:07:02;;;;;;;13.10;10.00;;;;;;;;;;5075698;28;20451;-61
2023/06/05 07:09:29;;;;;;;18.00;8.60;;;;;;;;;;5076167;28;20485;-61
2023/06/05 07:11:58;;;;;;;11.43;8.63;;;;;;;;;;5075256;28;20424;-61
2023/06/05 07:14:25;;;;;;;11.37;8.87;;;;;;;;;;5075221;28;20442;-61
2023/06/05 07:16:56;;;;;;;14.90;9.97;;;;;;;;;;5074918;28;20473;-61
2023/06/05 07:19:23;;;;;;;13.43;9.50;;;;;;;;;;5075469;28;20474;-61
2023/06/05 07:21:52;;;;;;;13.37;10.70;;;;;;;;;;5075139;28;20454;-61
2023/06/05 07:24:19;;;;;;;13.57;10.67;;;;;;;;;;5075206;28;20446;-61
2023/06/05 07:26:46;;;;;;;10.03;9.00;;;;;;;;;;5074724;28;20529;-61
2023/06/05 07:29:14;;;;;;;22.50;10.40;;;;;;;;;;5074932;28;20478;-60
2023/06/05 07:31:41;;;;;;;12.97;8.67;;;;;;;;;;5074947;28;20796;-61
2023/06/05 07:34:08;;;;;;;11.47;9.43;;;;;;;;;;5074906;28;20533;-60
2023/06/05 07:36:36;;;;;;;12.17;9.57;;;;;;;;;;5074751;28;20449;-61
2023/06/05 07:39:05;;;;;;;12.73;9.33;;;;;;;;;;5074913;28;20468;-61
2023/06/05 07:41:32;;;;;;;15.60;10.17;;;;;;;;;;5074433;28;20447;-62
2023/06/05 07:43:59;;;;;;;13.30;8.57;;;;;;;;;;5075012;28;20465;-62
2023/06/05 07:46:27;;;;;;;9.97;7.57;;;;;;;;;;5074888;28;20531;-62
2023/06/05 07:48:54;;;;;;;8.20;7.10;;;;;;;;;;5074522;28;20485;-61
2023/06/05 07:51:22;;;;;;;9.87;7.67;;;;;;;;;;5074733;28;20438;-62
2023/06/05 07:53:49;;;;;;;12.20;8.67;;;;;;;;;;5073504;28;20493;-62
2023/06/05 07:56:17;;;;;;;11.53;8.80;;;;;;;;;;5074460;28;20449;-61
2023/06/05 07:58:46;;;;;;;13.17;8.80;;;;;;;;;;5074295;28;20446;-61
2023/06/05 08:01:15;;;;;;;18.37;9.10;;;;;;;;;;5073997;28;20511;-61
2023/06/05 08:03:43;;;;;;;11.17;8.80;;;;;;;;;;5073953;28;20549;-61
2023/06/05 08:06:11;;;;;;;12.50;9.87;;;;;;;;;;5074348;28;20453;-61
2023/06/05 08:08:38;;;;;;;8.90;7.97;;;;;;;;;;5074004;28;20489;-61
2023/06/05 08:11:05;;;;;;;11.27;8.30;;;;;;;;;;5074472;28;20441;-61
2023/06/05 08:13:33;;;;;;;11.83;8.43;;;;;;;;;;5074085;28;20791;-61
2023/06/05 08:16:01;;;;;;;11.93;8.63;;;;;;;;;;5073897;28;20483;-61
2023/06/05 08:18:28;;;;;;;14.70;8.57;;;;;;;;;;5073921;28;20445;-61
2023/06/05 08:20:55;;;;;;;10.63;6.90;;;;;;;;;;5073939;28;20528;-61
2023/06/05 08:23:23;;;;;;;11.13;6.93;;;;;;;;;;5074113;28;20575;-61
2023/06/05 08:25:50;;;;;;;12.27;7.60;;;;;;;;;;5073535;28;20454;-61
2023/06/05 08:28:17;;;;;;;12.10;8.50;;;;;;;;;;5073352;28;20473;-61
2023/06/05 08:30:46;;;;;;;9.63;7.83;;;;;;;;;;5073507;28;20452;-61
2023/06/05 08:33:13;;;;;;;15.90;9.50;;;;;;;;;;5073361;28;20432;-61
2023/06/05 08:35:41;;;;;;;12.40;7.90;;;;;;;;;;5073549;28;20805;-61
2023/06/05 08:38:09;;;;;;;10.47;8.20;;;;;;;;;;5073600;28;20455;-61
2023/06/05 08:40:38;;;;;;;9.53;7.70;;;;;;;;;;5073149;28;20948;-61
2023/06/05 08:43:05;;;;;;;13.47;9.30;;;;;;;;;;5073200;28;20448;-61
2023/06/05 08:45:33;;;;;;;13.83;9.07;;;;;;;;;;5073207;28;20455;-61
2023/06/05 08:48:02;;;;;;;9.07;7.87;;;;;;;;;;5073436;28;20515;-61
2023/06/05 08:50:30;;;;;;;13.63;8.40;;;;;;;;;;5073450;28;20538;-61
2023/06/05 08:53:00;;;;;;;12.90;9.37;;;;;;;;;;5073576;28;20440;-61
2023/06/05 08:55:27;;;;;;;11.17;7.67;;;;;;;;;;5073410;28;20457;-61
2023/06/05 08:57:55;;;;;;;12.43;7.57;;;;;;;;;;5073671;28;20438;-61
2023/06/05 09:00:23;;;;;;;11.07;7.40;;;;;;;;;;5073911;28;20455;-61
2023/06/05 09:02:50;;;;;;;13.27;7.13;;;;;;;;;;5073015;28;20462;-61
2023/06/05 09:05:19;;;;;;;12.27;7.70;;;;;;;;;;5072792;28;20451;-61
2023/06/05 09:07:46;;;;;;;11.23;7.23;;;;;;;;;;5073393;28;20435;-62
2023/06/05 09:10:23;;;;;;;10.80;8.70;;;;;;;;;;5073238;28;20482;-61
2023/06/05 09:12:54;;;;;;;10.47;8.90;;;;;;;;;;5073244;28;20455;-61
2023/06/05 09:15:26;;;;;;;13.20;7.53;;;;;;;;;;5073018;28;20949;-62
2023/06/05 09:18:11;;;;;;;12.77;7.47;;;;;;;;;;5073243;28;20912;-62
2023/06/05 09:20:40;;;;;;;12.80;7.80;;;;;;;;;;5072364;28;20939;-61
2023/06/05 09:23:24;;;;;;;11.83;8.50;;;;;;;;;;5073099;28;20445;-61
2023/06/05 09:25:52;;;;;;;8.83;7.20;;;;;;;;;;5072947;28;20435;-62
2023/06/05 09:28:19;;;;;;;8.77;7.37;;;;;;;;;;5073064;28;20446;-62
2023/06/05 09:30:57;;;;;;;8.73;7.07;;;;;;;;;;5073163;28;20471;-61
2023/06/05 09:33:24;;;;;;;7.93;6.60;;;;;;;;;;5073002;28;20449;-61
2023/06/05 09:36:04;;;;;;;10.70;7.80;;;;;;;;;;5072782;28;20444;-61
2023/06/05 09:38:32;;;;;;;31.53;9.80;;;;;;;;;;5072746;28;20941;-62
2023/06/05 09:41:05;;;;;;;14.40;7.20;;;;;;;;;;5072850;28;20547;-61
2023/06/05 09:43:33;;;;;;;11.07;7.63;;;;;;;;;;5073528;28;20442;-62
2023/06/05 09:46:00;;;;;;;7.23;6.40;;;;;;;;;;5073263;28;20447;-61
2023/06/05 09:48:27;;;;;;;14.83;7.53;;;;;;;;;;5072496;28;20995;-62
2023/06/05 09:50:55;;;;;;;8.93;6.93;;;;;;;;;;5072641;28;20446;-61
2023/06/05 09:53:24;;;;;;;11.30;6.67;;;;;;;;;;5072500;28;20438;-62
2023/06/05 09:55:51;;;;;;;14.10;7.10;;;;;;;;;;5072847;28;20439;-62
2023/06/05 09:58:19;;;;;;;8.03;6.33;;;;;;;;;;5073032;28;20844;-62
2023/06/05 10:00:47;;;;;;;13.53;6.50;;;;;;;;;;5072832;28;20924;-61
2023/06/05 10:03:16;;;;;;;7.90;5.43;;;;;;;;;;5072503;28;20951;-62
2023/06/05 10:05:44;;;;;;;22.43;7.00;;;;;;;;;;5072518;28;20557;-61
2023/06/05 10:08:13;;;;;;;10.00;7.13;;;;;;;;;;5072505;28;20443;-62
2023/06/05 10:10:41;;;;;;;13.47;7.17;;;;;;;;;;5072590;28;20478;-62
2023/06/05 10:13:10;;;;;;;15.47;6.63;;;;;;;;;;5072663;28;20476;-61
2023/06/05 10:15:38;;;;;;;7.53;5.90;;;;;;;;;;5072430;28;20482;-61
2023/06/05 10:18:06;;;;;;;11.70;9.33;;;;;;;;;;5075625;28;20459;-62
2023/06/05 10:20:37;;;;;;;9.83;5.20;;;;;;;;;;5075953;28;20452;-62
2023/06/05 10:23:04;;;;;;;6.50;5.80;;;;;;;;;;5076770;28;20438;-62
2023/06/05 10:25:32;;;;;;;10.80;5.80;;;;;;;;;;5076102;28;20441;-61
2023/06/05 10:28:10;;;;;;;10.90;5.40;;;;;;;;;;5076310;28;20471;-62
2023/06/05 10:30:56;;;;;;;13.10;6.00;;;;;;;;;;5076179;28;20463;-62
2023/06/05 10:33:30;;;;;;;7.10;5.43;;;;;;;;;;5075821;28;20928;-61
2023/06/05 10:36:01;;;;;;;7.73;6.00;;;;;;;;;;5075756;28;20435;-62
2023/06/05 10:38:29;;;;;;;11.87;5.47;;;;;;;;;;5075927;28;20967;-62
2023/06/05 10:40:57;;;;;;;14.60;9.53;;;;;;;;;;5075530;28;20452;-62
2023/06/05 10:43:29;;;;;;;8.67;5.17;;;;;;;;;;5075531;28;20453;-62
2023/06/05 10:45:57;;;;;;;7.73;4.90;;;;;;;;;;5075592;28;20847;-61
2023/06/05 10:48:39;;;;;;;7.73;5.60;;;;;;;;;;5075493;28;20902;-62
2023/06/05 10:51:30;;;;;;;8.87;5.13;;;;;;;;;;5075216;28;20487;-61
2023/06/05 10:53:57;;;;;;;5.90;4.57;;;;;;;;;;5060293;28;20463;-62
2023/06/05 10:56:45;;;;;;;9.80;5.40;;;;;;;;;;5075334;28;20452;-61
2023/06/05 10:59:14;;;;;;;6.57;5.10;;;;;;;;;;5075190;28;20453;-62
2023/06/05 11:01:41;;;;;;;6.00;5.13;;;;;;;;;;5075205;28;20436;-61
2023/06/05 11:04:09;;;;;;;7.20;4.80;;;;;;;;;;5075134;28;20449;-62
2023/06/05 11:06:37;;;;;;;13.63;6.60;;;;;;;;;;5075131;28;20479;-61
2023/06/05 11:09:08;;;;;;;11.77;5.43;;;;;;;;;;5075318;28;20491;-61
2023/06/05 11:11:54;;;;;;;13.50;7.20;;;;;;;;;;5075039;28;20523;-62
2023/06/05 11:14:23;;;;;;;11.73;6.10;;;;;;;;;;5075088;28;20456;-62
2023/06/05 11:16:50;;;;;;;6.13;5.53;;;;;;;;;;5074835;28;20475;-62
2023/06/05 11:19:36;;;;;;;10.43;4.97;;;;;;;;;;5075178;28;20444;-62
2023/06/05 11:22:04;;;;;;;10.00;5.60;;;;;;;;;;5075205;28;20433;-61
2023/06/05 11:24:31;;;;;;;11.77;5.03;;;;;;;;;;5074774;28;20534;-62
2023/06/05 11:26:58;;;;;;;11.30;5.20;;;;;;;;;;5074823;28;20459;-62
2023/06/05 11:29:27;;;;;;;12.10;5.73;;;;;;;;;;5074807;28;20992;-62
2023/06/05 11:31:55;;;;;;;7.20;4.93;;;;;;;;;;5075009;28;20528;-62
2023/06/05 11:34:22;;;;;;;12.23;6.37;;;;;;;;;;5075300;28;20849;-62
2023/06/05 11:36:49;;;;;;;7.67;5.77;;;;;;;;;;5074587;28;20499;-62
2023/06/05 11:39:16;;;;;;;6.83;4.93;;;;;;;;;;5074872;28;20433;-62
2023/06/05 11:41:47;;;;;;;7.37;5.10;;;;;;;;;;5074880;28;20499;-62
2023/06/05 11:44:14;;;;;;;6.57;4.97;;;;;;;;;;5074412;28;20535;-62
2023/06/05 11:46:43;;;;;;;6.77;5.03;;;;;;;;;;5074400;28;20448;-62
2023/06/05 11:49:24;;;;;;;11.63;4.50;;;;;;;;;;5074642;28;20808;-62
2023/06/05 11:51:51;;;;;;;6.00;4.70;;;;;;;;;;5074811;28;20796;-62
2023/06/05 11:54:25;;;;;;;15.33;5.60;;;;;;;;;;5074833;28;20785;-62
2023/06/05 11:56:52;;;;;;;9.90;4.57;;;;;;;;;;5074283;28;20439;-62
2023/06/05 11:59:20;;;;;;;7.43;4.30;;;;;;;;;;5074570;28;20477;-61
2023/06/05 12:01:50;;;;;;;5.30;3.97;;;;;;;;;;5074370;28;20479;-62
2023/06/05 12:04:17;;;;;;;11.90;5.30;;;;;;;;;;5074816;28;20431;-62
2023/06/05 12:06:47;;;;;;;4.10;3.70;;;;;;;;;;5074293;28;20859;-62
2023/06/05 12:09:15;;;;;;;5.47;3.47;;;;;;;;;;5073777;28;20955;-61
2023/06/05 12:11:44;;;;;;;4.70;4.00;;;;;;;;;;5074219;28;20952;-61
2023/06/05 12:14:12;;;;;;;9.43;4.07;;;;;;;;;;5074146;28;20486;-62
2023/06/05 12:16:39;;;;;;;11.40;4.20;;;;;;;;;;5074057;28;20478;-62
2023/06/05 12:19:14;;;;;;;6.53;4.87;;;;;;;;;;5073802;28;20449;-61
2023/06/05 12:21:41;;;;;;;6.83;5.17;;;;;;;;;;5072905;28;20529;-62
2023/06/05 12:24:09;;;;;;;11.47;3.67;;;;;;;;;;5072865;28;20513;-61
2023/06/05 12:26:54;;;;;;;4.00;3.40;;;;;;;;;;5073418;28;20493;-61
2023/06/05 12:29:22;;;;;;;5.73;3.17;;;;;;;;;;5073731;28;20456;-62
2023/06/05 12:31:50;;;;;;;6.90;3.43;;;;;;;;;;5072886;28;20447;-62
2023/06/05 12:34:18;;;;;;;14.03;3.87;;;;;;;;;;5073129;28;20445;-62
2023/06/05 12:36:47;;;;;;;4.63;4.20;;;;;;;;;;5073052;28;20447;-62
2023/06/05 12:39:15;;;;;;;5.07;3.40;;;;;;;;;;5072838;28;20443;-62
2023/06/05 12:41:44;;;;;;;6.73;3.23;;;;;;;;;;5073015;28;20474;-62
2023/06/05 12:44:11;;;;;;;3.60;3.30;;;;;;;;;;5073207;28;20455;-62
2023/06/05 12:46:38;;;;;;;5.93;3.50;;;;;;;;;;5073243;28;20817;-62
2023/06/05 12:49:06;;;;;;;6.23;3.20;;;;;;;;;;5073637;28;20549;-62
2023/06/05 12:51:34;;;;;;;3.60;2.93;;;;;;;;;;5072794;28;20476;-62
2023/06/05 12:54:02;;;;;;;8.30;4.00;;;;;;;;;;5073437;28;20866;-62
2023/06/05 12:56:30;;;;;;;5.87;4.63;;;;;;;;;;5073007;28;20994;-62
2023/06/05 12:58:58;;;;;;;10.93;3.50;;;;;;;;;;5073182;28;20532;-62
2023/06/05 13:01:26;;;;;;;12.40;3.70;;;;;;;;;;5072761;28;20460;-62
2023/06/05 13:03:53;;;;;;;3.50;3.17;;;;;;;;;;5072635;28;20443;-62
2023/06/05 13:06:21;;;;;;;6.60;3.53;;;;;;;;;;5073020;28;20974;-62
2023/06/05 13:08:51;;;;;;;3.03;2.60;;;;;;;;;;5073421;28;20721;-62
2023/06/05 13:11:18;;;;;;;12.43;3.57;;;;;;;;;;5072701;28;20467;-62
2023/06/05 13:13:45;;;;;;;8.93;3.73;;;;;;;;;;5073034;28;20538;-62
2023/06/05 13:16:13;;;;;;;4.00;3.27;;;;;;;;;;5072589;28;20484;-62
2023/06/05 13:18:40;;;;;;;3.93;3.07;;;;;;;;;;5072692;28;20442;-62
2023/06/05 13:21:07;;;;;;;8.37;3.70;;;;;;;;;;5072695;28;20448;-62
2023/06/05 13:23:35;;;;;;;5.10;2.93;;;;;;;;;;5072768;28;20450;-62
2023/06/05 13:26:04;;;;;;;3.77;3.00;;;;;;;;;;5072364;28;20441;-63
2023/06/05 13:28:31;;;;;;;3.90;2.73;;;;;;;;;;5072506;28;20442;-62
2023/06/05 13:30:58;;;;;;;5.63;3.20;;;;;;;;;;5072886;28;20449;-63
2023/06/05 13:33:25;;;;;;;4.93;3.37;;;;;;;;;;5072741;28;20597;-62
2023/06/05 13:35:53;;;;;;;5.93;3.20;;;;;;;;;;5072564;28;20945;-62
2023/06/05 13:38:21;;;;;;;6.13;3.50;;;;;;;;;;5072726;28;20447;-62
2023/06/05 13:40:49;;;;;;;6.23;3.23;;;;;;;;;;5073284;28;20458;-62
2023/06/05 13:43:18;;;;;;;7.30;3.90;;;;;;;;;;5072731;28;20419;-62
2023/06/05 13:45:45;;;;;;;7.50;3.87;;;;;;;;;;5072460;28;20532;-62
2023/06/05 13:48:12;;;;;;;3.93;3.03;;;;;;;;;;5072656;28;20564;-62
2023/06/05 13:50:40;;;;;;;6.27;2.93;;;;;;;;;;5072369;28;20531;-62
2023/06/05 13:53:07;;;;;;;3.27;3.07;;;;;;;;;;5075536;28;21123;-63
2023/06/05 13:55:35;;;;;;;8.80;3.13;;;;;;;;;;5076509;28;20768;-63
2023/06/05 13:58:02;;;;;;;3.80;3.20;;;;;;;;;;5076502;28;20468;-63
2023/06/05 14:00:31;;;;;;;3.40;3.00;;;;;;;;;;5076466;28;20421;-63
2023/06/05 14:02:58;;;;;;;6.83;2.47;;;;;;;;;;5076065;28;20413;-62
2023/06/05 14:05:26;;;;;;;7.27;3.33;;;;;;;;;;5076151;28;20417;-62
2023/06/05 14:07:54;;;;;;;5.10;3.57;;;;;;;;;;5076314;28;20415;-62
2023/06/05 14:10:22;;;;;;;7.23;2.90;;;;;;;;;;5075933;28;20504;-62
2023/06/05 14:12:50;;;;;;;3.50;3.00;;;;;;;;;;5076136;28;20487;-62
2023/06/05 14:15:17;;;;;;;4.17;2.97;;;;;;;;;;5075967;28;20460;-62
2023/06/05 14:17:46;;;;;;;7.77;4.00;;;;;;;;;;5076088;28;20425;-63
2023/06/05 14:20:14;;;;;;;4.03;2.70;;;;;;;;;;5076166;28;20423;-63
2023/06/05 14:22:41;;;;;;;4.83;3.23;;;;;;;;;;5075648;28;20504;-62
2023/06/05 14:25:10;;;;;;;5.10;3.47;;;;;;;;;;5075639;28;20557;-62
2023/06/05 14:27:37;;;;;;;2.77;2.57;;;;;;;;;;5075721;28;20455;-62
2023/06/05 14:30:04;;;;;;;4.37;2.90;;;;;;;;;;5075722;28;20457;-62
2023/06/05 14:32:32;;;;;;;7.93;3.10;;;;;;;;;;5076032;28;20416;-62
2023/06/05 14:35:00;;;;;;;7.90;2.73;;;;;;;;;;5075481;28;20921;-62
2023/06/05 14:37:28;;;;;;;3.80;3.07;;;;;;;;;;5075694;28;20840;-62
2023/06/05 14:39:55;;;;;;;3.57;2.50;;;;;;;;;;5075663;28;20529;-62
2023/06/05 14:42:23;;;;;;;6.50;3.30;;;;;;;;;;5075335;28;20942;-62
2023/06/05 14:44:50;;;;;;;4.53;2.70;;;;;;;;;;5075928;28;20812;-62